sensor_id;sensor_type;location;lat;lon;timestamp;P1;durP1;ratioP1;P2;durP2;ratioP2
18507;SDS011;9383;50.928;12.116;2022-11-12T00:00:50;5.93;;;5.35;;
18507;SDS011;9383;50.928;12.116;2022-11-12T00:03:17;5.85;;;5.25;;
18507;SDS011;9383;50.928;12.116;2022-11-12T00:05:45;5.78;;;4.80;;
18507;SDS011;9383;50.928;12.116;2022-11-12T00:08:13;7.78;;;5.65;;
18507;SDS011;9383;50.928;12.116;2022-11-12T00:10:40;5.28;;;4.88;;
18507;SDS011;9383;50.928;12.116;2022-11-12T00:13:08;5.40;;;4.90;;
18507;SDS011;9383;50.928;12.116;2022-11-12T00:15:34;5.93;;;5.32;;
18507;SDS011;9383;50.928;12.116;2022-11-12T00:18:01;6.30;;;5.60;;
18507;SDS011;9383;50.928;12.116;2022-11-12T00:20:28;5.72;;;5.13;;
18507;SDS011;9383;50.928;12.116;2022-11-12T00:22:54;6.03;;;5.53;;
18507;SDS011;9383;50.928;12.116;2022-11-12T00:25:21;6.00;;;5.40;;
18507;SDS011;9383;50.928;12.116;2022-11-12T00:27:47;5.22;;;4.70;;
18507;SDS011;9383;50.928;12.116;2022-11-12T00:30:14;5.70;;;5.10;;
18507;SDS011;9383;50.928;12.116;2022-11-12T00:32:41;6.10;;;5.20;;
18507;SDS011;9383;50.928;12.116;2022-11-12T00:35:09;5.68;;;5.18;;
18507;SDS011;9383;50.928;12.116;2022-11-12T00:37:36;10.65;;;5.40;;
18507;SDS011;9383;50.928;12.116;2022-11-12T00:40:03;6.07;;;5.57;;
18507;SDS011;9383;50.928;12.116;2022-11-12T00:42:30;6.45;;;5.85;;
18507;SDS011;9383;50.928;12.116;2022-11-12T00:44:57;5.75;;;5.25;;
18507;SDS011;9383;50.928;12.116;2022-11-12T00:47:23;6.28;;;5.78;;
18507;SDS011;9383;50.928;12.116;2022-11-12T00:49:49;7.05;;;5.40;;
18507;SDS011;9383;50.928;12.116;2022-11-12T00:52:16;6.22;;;5.72;;
18507;SDS011;9383;50.928;12.116;2022-11-12T00:54:43;6.80;;;5.50;;
18507;SDS011;9383;50.928;12.116;2022-11-12T00:57:09;8.82;;;6.35;;
18507;SDS011;9383;50.928;12.116;2022-11-12T00:59:36;8.90;;;6.00;;
18507;SDS011;9383;50.928;12.116;2022-11-12T01:02:03;6.60;;;5.90;;
18507;SDS011;9383;50.928;12.116;2022-11-12T01:04:29;7.03;;;6.32;;
18507;SDS011;9383;50.928;12.116;2022-11-12T01:06:57;6.88;;;6.25;;
18507;SDS011;9383;50.928;12.116;2022-11-12T01:09:23;6.30;;;5.75;;
18507;SDS011;9383;50.928;12.116;2022-11-12T01:11:50;7.10;;;6.40;;
18507;SDS011;9383;50.928;12.116;2022-11-12T01:14:17;6.78;;;6.28;;
18507;SDS011;9383;50.928;12.116;2022-11-12T01:16:43;7.15;;;6.45;;
18507;SDS011;9383;50.928;12.116;2022-11-12T01:19:11;6.90;;;6.20;;
18507;SDS011;9383;50.928;12.116;2022-11-12T01:21:42;9.07;;;7.20;;
18507;SDS011;9383;50.928;12.116;2022-11-12T01:24:09;7.97;;;6.82;;
18507;SDS011;9383;50.928;12.116;2022-11-12T01:26:36;8.65;;;7.70;;
18507;SDS011;9383;50.928;12.116;2022-11-12T01:29:03;9.63;;;7.97;;
18507;SDS011;9383;50.928;12.116;2022-11-12T01:31:31;7.82;;;7.13;;
18507;SDS011;9383;50.928;12.116;2022-11-12T01:34:02;8.52;;;7.72;;
18507;SDS011;9383;50.928;12.116;2022-11-12T01:36:39;8.55;;;7.68;;
18507;SDS011;9383;50.928;12.116;2022-11-12T01:39:09;8.40;;;7.50;;
18507;SDS011;9383;50.928;12.116;2022-11-12T01:41:37;12.13;;;8.48;;
18507;SDS011;9383;50.928;12.116;2022-11-12T01:44:06;9.57;;;7.30;;
18507;SDS011;9383;50.928;12.116;2022-11-12T01:46:36;8.65;;;7.90;;
18507;SDS011;9383;50.928;12.116;2022-11-12T01:49:20;9.43;;;8.50;;
18507;SDS011;9383;50.928;12.116;2022-11-12T01:51:58;9.30;;;8.30;;
18507;SDS011;9383;50.928;12.116;2022-11-12T01:54:51;9.55;;;7.85;;
18507;SDS011;9383;50.928;12.116;2022-11-12T01:57:24;9.20;;;8.27;;
18507;SDS011;9383;50.928;12.116;2022-11-12T01:59:55;9.35;;;8.48;;
18507;SDS011;9383;50.928;12.116;2022-11-12T02:02:27;10.38;;;9.48;;
18507;SDS011;9383;50.928;12.116;2022-11-12T02:04:54;10.45;;;9.35;;
18507;SDS011;9383;50.928;12.116;2022-11-12T02:07:21;9.45;;;8.48;;
18507;SDS011;9383;50.928;12.116;2022-11-12T02:09:49;9.82;;;8.75;;
18507;SDS011;9383;50.928;12.116;2022-11-12T02:12:17;10.80;;;8.90;;
18507;SDS011;9383;50.928;12.116;2022-11-12T02:15:03;9.32;;;8.43;;
18507;SDS011;9383;50.928;12.116;2022-11-12T02:17:31;8.98;;;8.07;;
18507;SDS011;9383;50.928;12.116;2022-11-12T02:19:59;8.07;;;7.38;;
18507;SDS011;9383;50.928;12.116;2022-11-12T02:22:26;9.68;;;8.77;;
18507;SDS011;9383;50.928;12.116;2022-11-12T02:24:52;9.18;;;8.15;;
18507;SDS011;9383;50.928;12.116;2022-11-12T02:27:20;8.55;;;7.85;;
18507;SDS011;9383;50.928;12.116;2022-11-12T02:29:47;10.00;;;8.18;;
18507;SDS011;9383;50.928;12.116;2022-11-12T02:32:13;8.40;;;7.70;;
18507;SDS011;9383;50.928;12.116;2022-11-12T02:34:40;8.60;;;7.80;;
18507;SDS011;9383;50.928;12.116;2022-11-12T02:37:07;8.27;;;7.43;;
18507;SDS011;9383;50.928;12.116;2022-11-12T02:39:34;8.52;;;7.65;;
18507;SDS011;9383;50.928;12.116;2022-11-12T02:42:00;8.15;;;7.35;;
18507;SDS011;9383;50.928;12.116;2022-11-12T02:44:27;8.80;;;7.85;;
18507;SDS011;9383;50.928;12.116;2022-11-12T02:46:54;7.60;;;6.93;;
18507;SDS011;9383;50.928;12.116;2022-11-12T02:49:21;8.27;;;7.57;;
18507;SDS011;9383;50.928;12.116;2022-11-12T02:51:47;8.50;;;7.53;;
18507;SDS011;9383;50.928;12.116;2022-11-12T02:54:14;7.82;;;7.03;;
18507;SDS011;9383;50.928;12.116;2022-11-12T02:56:40;9.65;;;7.40;;
18507;SDS011;9383;50.928;12.116;2022-11-12T02:59:07;7.32;;;6.72;;
18507;SDS011;9383;50.928;12.116;2022-11-12T03:01:33;7.45;;;6.18;;
18507;SDS011;9383;50.928;12.116;2022-11-12T03:04:00;7.18;;;6.47;;
18507;SDS011;9383;50.928;12.116;2022-11-12T03:06:27;7.20;;;6.60;;
18507;SDS011;9383;50.928;12.116;2022-11-12T03:08:53;6.97;;;6.30;;
18507;SDS011;9383;50.928;12.116;2022-11-12T03:11:20;6.82;;;6.18;;
18507;SDS011;9383;50.928;12.116;2022-11-12T03:13:46;7.22;;;6.07;;
18507;SDS011;9383;50.928;12.116;2022-11-12T03:16:12;7.35;;;6.40;;
18507;SDS011;9383;50.928;12.116;2022-11-12T03:18:39;6.20;;;5.70;;
18507;SDS011;9383;50.928;12.116;2022-11-12T03:21:05;6.25;;;5.65;;
18507;SDS011;9383;50.928;12.116;2022-11-12T03:23:32;7.47;;;6.03;;
18507;SDS011;9383;50.928;12.116;2022-11-12T03:26:00;6.72;;;6.13;;
18507;SDS011;9383;50.928;12.116;2022-11-12T03:28:28;6.00;;;5.47;;
18507;SDS011;9383;50.928;12.116;2022-11-12T03:30:58;6.60;;;6.07;;
18507;SDS011;9383;50.928;12.116;2022-11-12T03:33:25;7.53;;;6.22;;
18507;SDS011;9383;50.928;12.116;2022-11-12T03:35:52;7.93;;;6.28;;
18507;SDS011;9383;50.928;12.116;2022-11-12T03:38:18;6.53;;;5.93;;
18507;SDS011;9383;50.928;12.116;2022-11-12T03:40:45;7.93;;;6.32;;
18507;SDS011;9383;50.928;12.116;2022-11-12T03:43:11;7.07;;;6.30;;
18507;SDS011;9383;50.928;12.116;2022-11-12T03:45:38;6.22;;;5.72;;
18507;SDS011;9383;50.928;12.116;2022-11-12T03:48:04;6.00;;;5.10;;
18507;SDS011;9383;50.928;12.116;2022-11-12T03:50:31;5.95;;;5.45;;
18507;SDS011;9383;50.928;12.116;2022-11-12T03:52:58;5.93;;;5.40;;
18507;SDS011;9383;50.928;12.116;2022-11-12T03:55:25;5.85;;;5.35;;
18507;SDS011;9383;50.928;12.116;2022-11-12T03:57:53;6.00;;;5.50;;
18507;SDS011;9383;50.928;12.116;2022-11-12T04:00:20;6.65;;;5.65;;
18507;SDS011;9383;50.928;12.116;2022-11-12T04:02:48;6.13;;;5.53;;
18507;SDS011;9383;50.928;12.116;2022-11-12T04:05:14;6.55;;;5.88;;
18507;SDS011;9383;50.928;12.116;2022-11-12T04:08:01;6.22;;;5.55;;
18507;SDS011;9383;50.928;12.116;2022-11-12T04:10:49;5.78;;;5.25;;
18507;SDS011;9383;50.928;12.116;2022-11-12T04:13:16;5.95;;;5.45;;
18507;SDS011;9383;50.928;12.116;2022-11-12T04:16:04;6.50;;;5.88;;
18507;SDS011;9383;50.928;12.116;2022-11-12T04:18:51;6.25;;;5.65;;
18507;SDS011;9383;50.928;12.116;2022-11-12T04:21:45;7.05;;;5.85;;
18507;SDS011;9383;50.928;12.116;2022-11-12T04:24:33;7.22;;;6.45;;
18507;SDS011;9383;50.928;12.116;2022-11-12T04:29:47;6.47;;;5.80;;
18507;SDS011;9383;50.928;12.116;2022-11-12T04:32:36;6.00;;;5.50;;
18507;SDS011;9383;50.928;12.116;2022-11-12T04:35:04;6.28;;;5.78;;
18507;SDS011;9383;50.928;12.116;2022-11-12T04:37:33;7.78;;;5.97;;
18507;SDS011;9383;50.928;12.116;2022-11-12T04:40:11;6.22;;;5.72;;
18507;SDS011;9383;50.928;12.116;2022-11-12T04:43:05;6.35;;;5.75;;
18507;SDS011;9383;50.928;12.116;2022-11-12T04:45:52;6.68;;;6.00;;
18507;SDS011;9383;50.928;12.116;2022-11-12T04:48:20;6.65;;;6.05;;
18507;SDS011;9383;50.928;12.116;2022-11-12T04:50:48;7.32;;;6.22;;
18507;SDS011;9383;50.928;12.116;2022-11-12T04:53:21;6.25;;;5.75;;
18507;SDS011;9383;50.928;12.116;2022-11-12T04:55:48;6.28;;;5.78;;
18507;SDS011;9383;50.928;12.116;2022-11-12T04:58:16;6.32;;;5.72;;
18507;SDS011;9383;50.928;12.116;2022-11-12T05:00:43;6.70;;;6.07;;
18507;SDS011;9383;50.928;12.116;2022-11-12T05:03:10;6.10;;;5.60;;
18507;SDS011;9383;50.928;12.116;2022-11-12T05:05:36;6.35;;;5.57;;
18507;SDS011;9383;50.928;12.116;2022-11-12T05:08:03;5.63;;;5.13;;
18507;SDS011;9383;50.928;12.116;2022-11-12T05:10:30;5.90;;;5.38;;
18507;SDS011;9383;50.928;12.116;2022-11-12T05:12:56;6.50;;;5.90;;
18507;SDS011;9383;50.928;12.116;2022-11-12T05:15:23;6.20;;;5.63;;
18507;SDS011;9383;50.928;12.116;2022-11-12T05:17:50;7.25;;;5.93;;
18507;SDS011;9383;50.928;12.116;2022-11-12T05:20:17;6.32;;;5.72;;
18507;SDS011;9383;50.928;12.116;2022-11-12T05:22:43;6.82;;;6.15;;
18507;SDS011;9383;50.928;12.116;2022-11-12T05:25:10;7.53;;;6.72;;
18507;SDS011;9383;50.928;12.116;2022-11-12T05:27:37;6.90;;;6.25;;
18507;SDS011;9383;50.928;12.116;2022-11-12T05:30:03;6.45;;;5.85;;
18507;SDS011;9383;50.928;12.116;2022-11-12T05:32:30;6.38;;;5.78;;
18507;SDS011;9383;50.928;12.116;2022-11-12T05:34:57;7.68;;;5.90;;
18507;SDS011;9383;50.928;12.116;2022-11-12T05:37:23;7.47;;;6.30;;
18507;SDS011;9383;50.928;12.116;2022-11-12T05:39:50;6.35;;;5.75;;
18507;SDS011;9383;50.928;12.116;2022-11-12T05:42:16;7.05;;;6.40;;
18507;SDS011;9383;50.928;12.116;2022-11-12T05:44:43;6.63;;;6.13;;
18507;SDS011;9383;50.928;12.116;2022-11-12T05:47:09;7.65;;;6.95;;
18507;SDS011;9383;50.928;12.116;2022-11-12T05:49:36;7.53;;;6.82;;
18507;SDS011;9383;50.928;12.116;2022-11-12T05:52:03;7.45;;;6.75;;
18507;SDS011;9383;50.928;12.116;2022-11-12T05:54:29;7.03;;;6.30;;
18507;SDS011;9383;50.928;12.116;2022-11-12T05:56:56;6.72;;;6.10;;
18507;SDS011;9383;50.928;12.116;2022-11-12T05:59:22;7.75;;;6.65;;
18507;SDS011;9383;50.928;12.116;2022-11-12T06:01:49;7.28;;;6.53;;
18507;SDS011;9383;50.928;12.116;2022-11-12T06:04:15;7.22;;;6.57;;
18507;SDS011;9383;50.928;12.116;2022-11-12T06:06:42;6.85;;;6.15;;
18507;SDS011;9383;50.928;12.116;2022-11-12T06:09:09;6.60;;;6.00;;
18507;SDS011;9383;50.928;12.116;2022-11-12T06:11:36;8.63;;;6.22;;
18507;SDS011;9383;50.928;12.116;2022-11-12T06:14:03;7.00;;;6.32;;
18507;SDS011;9383;50.928;12.116;2022-11-12T06:16:30;7.53;;;6.82;;
18507;SDS011;9383;50.928;12.116;2022-11-12T06:18:57;6.85;;;6.28;;
18507;SDS011;9383;50.928;12.116;2022-11-12T06:21:24;7.95;;;5.95;;
18507;SDS011;9383;50.928;12.116;2022-11-12T06:23:56;6.97;;;6.38;;
18507;SDS011;9383;50.928;12.116;2022-11-12T06:26:25;7.93;;;6.68;;
18507;SDS011;9383;50.928;12.116;2022-11-12T06:28:53;7.60;;;6.97;;
18507;SDS011;9383;50.928;12.116;2022-11-12T06:31:20;7.13;;;6.53;;
18507;SDS011;9383;50.928;12.116;2022-11-12T06:33:47;7.30;;;6.60;;
18507;SDS011;9383;50.928;12.116;2022-11-12T06:36:16;8.65;;;7.75;;
18507;SDS011;9383;50.928;12.116;2022-11-12T06:38:46;8.30;;;7.43;;
18507;SDS011;9383;50.928;12.116;2022-11-12T06:41:13;8.55;;;6.10;;
18507;SDS011;9383;50.928;12.116;2022-11-12T06:43:40;6.65;;;6.10;;
18507;SDS011;9383;50.928;12.116;2022-11-12T06:46:11;7.25;;;6.65;;
18507;SDS011;9383;50.928;12.116;2022-11-12T06:48:40;7.13;;;6.40;;
18507;SDS011;9383;50.928;12.116;2022-11-12T06:51:07;6.20;;;5.72;;
18507;SDS011;9383;50.928;12.116;2022-11-12T06:53:44;6.90;;;6.28;;
18507;SDS011;9383;50.928;12.116;2022-11-12T06:56:11;6.90;;;6.13;;
18507;SDS011;9383;50.928;12.116;2022-11-12T06:58:39;6.90;;;6.20;;
18507;SDS011;9383;50.928;12.116;2022-11-12T07:01:12;6.40;;;5.72;;
18507;SDS011;9383;50.928;12.116;2022-11-12T07:03:41;6.30;;;5.72;;
18507;SDS011;9383;50.928;12.116;2022-11-12T07:06:10;7.55;;;6.85;;
18507;SDS011;9383;50.928;12.116;2022-11-12T07:08:38;7.07;;;6.07;;
18507;SDS011;9383;50.928;12.116;2022-11-12T07:11:06;7.53;;;6.82;;
18507;SDS011;9383;50.928;12.116;2022-11-12T07:13:34;8.13;;;6.95;;
18507;SDS011;9383;50.928;12.116;2022-11-12T07:16:01;7.90;;;7.13;;
18507;SDS011;9383;50.928;12.116;2022-11-12T07:18:29;8.90;;;7.60;;
18507;SDS011;9383;50.928;12.116;2022-11-12T07:21:00;8.00;;;7.30;;
18507;SDS011;9383;50.928;12.116;2022-11-12T07:23:28;8.18;;;7.40;;
18507;SDS011;9383;50.928;12.116;2022-11-12T07:25:59;8.68;;;7.97;;
18507;SDS011;9383;50.928;12.116;2022-11-12T07:28:28;8.02;;;7.32;;
18507;SDS011;9383;50.928;12.116;2022-11-12T07:31:02;7.88;;;7.18;;
18507;SDS011;9383;50.928;12.116;2022-11-12T07:33:30;6.72;;;6.13;;
18507;SDS011;9383;50.928;12.116;2022-11-12T07:36:02;6.18;;;5.68;;
18507;SDS011;9383;50.928;12.116;2022-11-12T07:38:34;5.72;;;5.22;;
18507;SDS011;9383;50.928;12.116;2022-11-12T07:41:12;5.13;;;4.70;;
18507;SDS011;9383;50.928;12.116;2022-11-12T07:43:41;4.90;;;4.50;;
18507;SDS011;9383;50.928;12.116;2022-11-12T07:46:09;5.03;;;4.55;;
18507;SDS011;9383;50.928;12.116;2022-11-12T07:48:38;5.00;;;4.60;;
18507;SDS011;9383;50.928;12.116;2022-11-12T07:51:07;4.00;;;3.70;;
18507;SDS011;9383;50.928;12.116;2022-11-12T07:53:36;4.72;;;4.32;;
18507;SDS011;9383;50.928;12.116;2022-11-12T07:56:04;4.60;;;4.20;;
18507;SDS011;9383;50.928;12.116;2022-11-12T07:58:31;4.40;;;4.10;;
18507;SDS011;9383;50.928;12.116;2022-11-12T08:03:38;4.78;;;4.43;;
18507;SDS011;9383;50.928;12.116;2022-11-12T08:06:05;5.25;;;4.75;;
18507;SDS011;9383;50.928;12.116;2022-11-12T08:08:32;5.25;;;4.85;;
18507;SDS011;9383;50.928;12.116;2022-11-12T08:10:58;4.50;;;4.10;;
18507;SDS011;9383;50.928;12.116;2022-11-12T08:13:25;4.85;;;4.50;;
18507;SDS011;9383;50.928;12.116;2022-11-12T08:15:51;4.57;;;4.10;;
18507;SDS011;9383;50.928;12.116;2022-11-12T08:18:21;4.60;;;4.15;;
18507;SDS011;9383;50.928;12.116;2022-11-12T08:20:47;4.43;;;4.13;;
18507;SDS011;9383;50.928;12.116;2022-11-12T08:23:14;4.65;;;4.15;;
18507;SDS011;9383;50.928;12.116;2022-11-12T08:25:40;4.50;;;4.00;;
18507;SDS011;9383;50.928;12.116;2022-11-12T08:28:07;4.22;;;3.88;;
18507;SDS011;9383;50.928;12.116;2022-11-12T08:30:34;4.32;;;3.92;;
18507;SDS011;9383;50.928;12.116;2022-11-12T08:33:02;4.55;;;4.15;;
18507;SDS011;9383;50.928;12.116;2022-11-12T08:35:30;4.35;;;4.05;;
18507;SDS011;9383;50.928;12.116;2022-11-12T08:38:01;3.85;;;3.55;;
18507;SDS011;9383;50.928;12.116;2022-11-12T08:40:31;4.70;;;3.60;;
18507;SDS011;9383;50.928;12.116;2022-11-12T08:45:26;4.15;;;3.40;;
18507;SDS011;9383;50.928;12.116;2022-11-12T08:48:04;3.45;;;3.25;;
18507;SDS011;9383;50.928;12.116;2022-11-12T08:50:35;3.72;;;3.42;;
18507;SDS011;9383;50.928;12.116;2022-11-12T08:53:04;3.95;;;3.60;;
18507;SDS011;9383;50.928;12.116;2022-11-12T08:55:32;3.75;;;3.45;;
18507;SDS011;9383;50.928;12.116;2022-11-12T08:57:59;3.67;;;3.38;;
18507;SDS011;9383;50.928;12.116;2022-11-12T09:00:27;3.67;;;3.38;;
18507;SDS011;9383;50.928;12.116;2022-11-12T09:03:00;3.78;;;3.40;;
18507;SDS011;9383;50.928;12.116;2022-11-12T09:05:28;3.40;;;3.10;;
18507;SDS011;9383;50.928;12.116;2022-11-12T09:07:58;4.47;;;4.07;;
18507;SDS011;9383;50.928;12.116;2022-11-12T09:10:35;4.22;;;3.92;;
18507;SDS011;9383;50.928;12.116;2022-11-12T09:13:02;4.60;;;4.20;;
18507;SDS011;9383;50.928;12.116;2022-11-12T09:15:29;5.45;;;3.70;;
18507;SDS011;9383;50.928;12.116;2022-11-12T09:18:00;4.45;;;4.05;;
18507;SDS011;9383;50.928;12.116;2022-11-12T09:20:29;3.90;;;3.50;;
18507;SDS011;9383;50.928;12.116;2022-11-12T09:23:29;3.28;;;2.97;;
18507;SDS011;9383;50.928;12.116;2022-11-12T09:25:49;3.70;;;3.15;;
18507;SDS011;9383;50.928;12.116;2022-11-12T09:28:16;4.25;;;3.05;;
18507;SDS011;9383;50.928;12.116;2022-11-12T09:30:44;3.78;;;3.40;;
18507;SDS011;9383;50.928;12.116;2022-11-12T09:33:14;3.40;;;3.10;;
18507;SDS011;9383;50.928;12.116;2022-11-12T09:35:42;3.20;;;2.90;;
18507;SDS011;9383;50.928;12.116;2022-11-12T09:38:10;2.63;;;2.53;;
18507;SDS011;9383;50.928;12.116;2022-11-12T09:40:40;3.40;;;3.15;;
18507;SDS011;9383;50.928;12.116;2022-11-12T09:43:31;3.45;;;3.15;;
18507;SDS011;9383;50.928;12.116;2022-11-12T09:46:18;3.00;;;2.80;;
18507;SDS011;9383;50.928;12.116;2022-11-12T09:49:10;2.95;;;2.75;;
18507;SDS011;9383;50.928;12.116;2022-11-12T09:54:23;3.95;;;2.83;;
18507;SDS011;9383;50.928;12.116;2022-11-12T09:56:51;2.53;;;2.33;;
18507;SDS011;9383;50.928;12.116;2022-11-12T09:59:19;4.00;;;2.88;;
18507;SDS011;9383;50.928;12.116;2022-11-12T10:04:50;2.88;;;2.65;;
18507;SDS011;9383;50.928;12.116;2022-11-12T10:12:49;3.40;;;3.00;;
18507;SDS011;9383;50.928;12.116;2022-11-12T10:15:49;3.70;;;2.80;;
18507;SDS011;9383;50.928;12.116;2022-11-12T10:21:50;2.88;;;2.67;;
18507;SDS011;9383;50.928;12.116;2022-11-12T10:24:37;2.63;;;2.45;;
18507;SDS011;9383;50.928;12.116;2022-11-12T10:27:14;2.78;;;2.60;;
18507;SDS011;9383;50.928;12.116;2022-11-12T10:30:03;2.97;;;2.78;;
18507;SDS011;9383;50.928;12.116;2022-11-12T10:32:31;2.70;;;2.50;;
18507;SDS011;9383;50.928;12.116;2022-11-12T10:35:01;3.38;;;2.78;;
18507;SDS011;9383;50.928;12.116;2022-11-12T10:37:33;3.00;;;2.70;;
18507;SDS011;9383;50.928;12.116;2022-11-12T10:43:03;3.35;;;2.47;;
18507;SDS011;9383;50.928;12.116;2022-11-12T10:45:45;2.45;;;2.20;;
18507;SDS011;9383;50.928;12.116;2022-11-12T10:48:26;2.67;;;2.47;;
18507;SDS011;9383;50.928;12.116;2022-11-12T10:50:57;2.13;;;2.03;;
18507;SDS011;9383;50.928;12.116;2022-11-12T10:56:04;2.28;;;2.08;;
18507;SDS011;9383;50.928;12.116;2022-11-12T11:01:43;2.65;;;2.45;;
18507;SDS011;9383;50.928;12.116;2022-11-12T11:04:15;2.33;;;2.13;;
18507;SDS011;9383;50.928;12.116;2022-11-12T11:09:29;2.70;;;2.50;;
18507;SDS011;9383;50.928;12.116;2022-11-12T11:11:56;2.60;;;2.40;;
18507;SDS011;9383;50.928;12.116;2022-11-12T11:14:30;2.28;;;2.05;;
18507;SDS011;9383;50.928;12.116;2022-11-12T11:17:03;2.03;;;1.80;;
18507;SDS011;9383;50.928;12.116;2022-11-12T11:19:36;2.00;;;1.90;;
18507;SDS011;9383;50.928;12.116;2022-11-12T11:22:18;3.42;;;2.13;;
18507;SDS011;9383;50.928;12.116;2022-11-12T11:25:01;1.70;;;1.50;;
18507;SDS011;9383;50.928;12.116;2022-11-12T11:27:53;2.20;;;1.63;;
18507;SDS011;9383;50.928;12.116;2022-11-12T11:30:31;1.80;;;1.50;;
18507;SDS011;9383;50.928;12.116;2022-11-12T11:43:57;1.48;;;1.38;;
18507;SDS011;9383;50.928;12.116;2022-11-12T11:57:16;1.52;;;1.42;;
18507;SDS011;9383;50.928;12.116;2022-11-12T12:17:02;1.15;;;1.15;;
18507;SDS011;9383;50.928;12.116;2022-11-12T12:22:28;1.48;;;1.20;;
18507;SDS011;9383;50.928;12.116;2022-11-12T12:25:17;2.58;;;1.17;;
18507;SDS011;9383;50.928;12.116;2022-11-12T12:30:22;1.20;;;1.15;;
18507;SDS011;9383;50.928;12.116;2022-11-12T12:35:32;1.50;;;1.40;;
18507;SDS011;9383;50.928;12.116;2022-11-12T12:38:19;1.40;;;1.30;;
18507;SDS011;9383;50.928;12.116;2022-11-12T12:43:29;1.23;;;1.23;;
18507;SDS011;9383;50.928;12.116;2022-11-12T12:46:04;1.70;;;1.60;;
18507;SDS011;9383;50.928;12.116;2022-11-12T12:48:36;2.22;;;1.65;;
18507;SDS011;9383;50.928;12.116;2022-11-12T12:51:07;2.70;;;2.10;;
18507;SDS011;9383;50.928;12.116;2022-11-12T12:53:42;3.22;;;2.10;;
18507;SDS011;9383;50.928;12.116;2022-11-12T13:01:09;2.28;;;1.65;;
18507;SDS011;9383;50.928;12.116;2022-11-12T13:06:39;1.60;;;1.50;;
18507;SDS011;9383;50.928;12.116;2022-11-12T13:11:45;1.40;;;1.30;;
18507;SDS011;9383;50.928;12.116;2022-11-12T13:17:02;0.95;;;0.95;;
18507;SDS011;9383;50.928;12.116;2022-11-12T13:19:33;1.92;;;1.33;;
18507;SDS011;9383;50.928;12.116;2022-11-12T13:32:52;2.17;;;1.40;;
18507;SDS011;9383;50.928;12.116;2022-11-12T13:35:24;1.55;;;1.45;;
18507;SDS011;9383;50.928;12.116;2022-11-12T13:37:59;3.40;;;1.48;;
18507;SDS011;9383;50.928;12.116;2022-11-12T13:48:44;3.97;;;1.60;;
18507;SDS011;9383;50.928;12.116;2022-11-12T13:59:39;4.35;;;2.20;;
18507;SDS011;9383;50.928;12.116;2022-11-12T14:02:14;1.95;;;1.83;;
18507;SDS011;9383;50.928;12.116;2022-11-12T14:04:49;4.00;;;2.17;;
18507;SDS011;9383;50.928;12.116;2022-11-12T14:07:24;3.13;;;1.30;;
18507;SDS011;9383;50.928;12.116;2022-11-12T14:10:16;2.95;;;1.70;;
18507;SDS011;9383;50.928;12.116;2022-11-12T14:21:37;2.92;;;1.90;;
18507;SDS011;9383;50.928;12.116;2022-11-12T14:24:04;2.28;;;1.60;;
18507;SDS011;9383;50.928;12.116;2022-11-12T14:26:39;2.75;;;2.10;;
18507;SDS011;9383;50.928;12.116;2022-11-12T14:29:12;2.08;;;1.75;;
18507;SDS011;9383;50.928;12.116;2022-11-12T14:31:42;3.55;;;1.80;;
18507;SDS011;9383;50.928;12.116;2022-11-12T14:34:18;4.57;;;2.30;;
18507;SDS011;9383;50.928;12.116;2022-11-12T14:36:45;5.63;;;2.40;;
18507;SDS011;9383;50.928;12.116;2022-11-12T14:39:13;3.90;;;1.98;;
18507;SDS011;9383;50.928;12.116;2022-11-12T14:41:40;2.03;;;1.90;;
18507;SDS011;9383;50.928;12.116;2022-11-12T14:44:13;3.28;;;2.20;;
18507;SDS011;9383;50.928;12.116;2022-11-12T14:46:45;3.50;;;1.98;;
18507;SDS011;9383;50.928;12.116;2022-11-12T14:49:47;1.92;;;1.80;;
18507;SDS011;9383;50.928;12.116;2022-11-12T14:54:52;2.90;;;2.10;;
18507;SDS011;9383;50.928;12.116;2022-11-12T14:57:26;2.65;;;1.95;;
18507;SDS011;9383;50.928;12.116;2022-11-12T14:59:54;2.28;;;1.98;;
18507;SDS011;9383;50.928;12.116;2022-11-12T15:02:26;2.40;;;2.10;;
18507;SDS011;9383;50.928;12.116;2022-11-12T15:04:58;1.88;;;1.77;;
18507;SDS011;9383;50.928;12.116;2022-11-12T15:07:30;2.50;;;2.30;;
18507;SDS011;9383;50.928;12.116;2022-11-12T15:10:00;2.50;;;2.30;;
18507;SDS011;9383;50.928;12.116;2022-11-12T15:12:58;2.45;;;2.15;;
18507;SDS011;9383;50.928;12.116;2022-11-12T15:15:50;2.83;;;2.50;;
18507;SDS011;9383;50.928;12.116;2022-11-12T15:18:20;2.42;;;2.22;;
18507;SDS011;9383;50.928;12.116;2022-11-12T15:21:05;38.30;;;12.35;;
18507;SDS011;9383;50.928;12.116;2022-11-12T15:23:48;45.72;;;14.13;;
18507;SDS011;9383;50.928;12.116;2022-11-12T15:26:34;5.40;;;2.78;;
18507;SDS011;9383;50.928;12.116;2022-11-12T15:32:42;29.70;;;11.57;;
18507;SDS011;9383;50.928;12.116;2022-11-12T15:34:50;4.32;;;3.40;;
18507;SDS011;9383;50.928;12.116;2022-11-12T15:44:41;13.18;;;5.65;;
18507;SDS011;9383;50.928;12.116;2022-11-12T15:47:13;16.80;;;5.68;;
18507;SDS011;9383;50.928;12.116;2022-11-12T15:49:46;8.10;;;4.60;;
18507;SDS011;9383;50.928;12.116;2022-11-12T15:52:14;7.18;;;3.35;;
18507;SDS011;9383;50.928;12.116;2022-11-12T15:54:40;4.93;;;3.30;;
18507;SDS011;9383;50.928;12.116;2022-11-12T15:57:09;5.85;;;2.95;;
18507;SDS011;9383;50.928;12.116;2022-11-12T15:59:42;3.97;;;2.60;;
18507;SDS011;9383;50.928;12.116;2022-11-12T16:02:10;4.80;;;2.40;;
18507;SDS011;9383;50.928;12.116;2022-11-12T16:04:38;4.40;;;2.70;;
18507;SDS011;9383;50.928;12.116;2022-11-12T16:07:05;2.88;;;2.67;;
18507;SDS011;9383;50.928;12.116;2022-11-12T16:09:33;4.10;;;2.40;;
18507;SDS011;9383;50.928;12.116;2022-11-12T16:11:59;3.05;;;2.55;;
18507;SDS011;9383;50.928;12.116;2022-11-12T16:14:27;5.07;;;3.22;;
18507;SDS011;9383;50.928;12.116;2022-11-12T16:16:54;3.58;;;2.58;;
18507;SDS011;9383;50.928;12.116;2022-11-12T16:19:21;3.25;;;2.67;;
18507;SDS011;9383;50.928;12.116;2022-11-12T16:21:47;3.70;;;2.70;;
18507;SDS011;9383;50.928;12.116;2022-11-12T16:24:14;2.65;;;2.45;;
18507;SDS011;9383;50.928;12.116;2022-11-12T16:26:40;5.47;;;2.80;;
18507;SDS011;9383;50.928;12.116;2022-11-12T16:29:13;4.25;;;2.42;;
18507;SDS011;9383;50.928;12.116;2022-11-12T16:31:41;3.70;;;2.42;;
18507;SDS011;9383;50.928;12.116;2022-11-12T16:34:09;5.68;;;4.40;;
18507;SDS011;9383;50.928;12.116;2022-11-12T16:36:37;8.02;;;4.88;;
18507;SDS011;9383;50.928;12.116;2022-11-12T16:39:04;5.03;;;3.75;;
18507;SDS011;9383;50.928;12.116;2022-11-12T16:41:31;3.75;;;3.42;;
18507;SDS011;9383;50.928;12.116;2022-11-12T16:43:57;5.65;;;5.15;;
18507;SDS011;9383;50.928;12.116;2022-11-12T16:46:26;5.13;;;4.72;;
18507;SDS011;9383;50.928;12.116;2022-11-12T16:48:55;3.67;;;2.83;;
18507;SDS011;9383;50.928;12.116;2022-11-12T16:51:22;10.43;;;9.43;;
18507;SDS011;9383;50.928;12.116;2022-11-12T16:53:49;5.88;;;4.78;;
18507;SDS011;9383;50.928;12.116;2022-11-12T16:56:17;3.83;;;2.83;;
18507;SDS011;9383;50.928;12.116;2022-11-12T16:58:45;12.68;;;10.02;;
18507;SDS011;9383;50.928;12.116;2022-11-12T17:01:14;10.73;;;7.97;;
18507;SDS011;9383;50.928;12.116;2022-11-12T17:03:50;5.78;;;5.28;;
18507;SDS011;9383;50.928;12.116;2022-11-12T17:06:17;5.20;;;4.70;;
18507;SDS011;9383;50.928;12.116;2022-11-12T17:08:46;2.92;;;2.53;;
18507;SDS011;9383;50.928;12.116;2022-11-12T17:11:13;3.90;;;3.60;;
18507;SDS011;9383;50.928;12.116;2022-11-12T17:13:40;5.97;;;4.97;;
18507;SDS011;9383;50.928;12.116;2022-11-12T17:16:08;4.80;;;3.10;;
18507;SDS011;9383;50.928;12.116;2022-11-12T17:18:35;2.90;;;2.70;;
18507;SDS011;9383;50.928;12.116;2022-11-12T17:21:06;5.35;;;4.85;;
18507;SDS011;9383;50.928;12.116;2022-11-12T17:23:37;6.18;;;5.65;;
18507;SDS011;9383;50.928;12.116;2022-11-12T17:26:05;4.43;;;4.03;;
18507;SDS011;9383;50.928;12.116;2022-11-12T17:28:34;3.08;;;2.88;;
18507;SDS011;9383;50.928;12.116;2022-11-12T17:31:12;3.88;;;3.42;;
18507;SDS011;9383;50.928;12.116;2022-11-12T17:33:39;5.22;;;4.82;;